createdAt,value
2023-04-11T00:00:25.730Z,43.26
2023-04-11T00:02:57.626Z,43.95
2023-04-11T00:05:30.577Z,43.40
2023-04-11T00:08:02.221Z,44.72
2023-04-11T00:10:34.197Z,44.81
2023-04-11T00:13:05.906Z,44.70
2023-04-11T00:15:37.553Z,43.56
2023-04-11T00:18:09.164Z,43.08
2023-04-11T00:20:40.746Z,43.70
2023-04-11T00:23:12.918Z,44.81
2023-04-11T00:25:44.605Z,44.96
2023-04-11T00:28:16.252Z,45.87
2023-04-11T00:30:47.875Z,45.93
2023-04-11T00:33:19.525Z,45.88
2023-04-11T00:35:51.149Z,45.80
2023-04-11T00:38:23.296Z,46.60
2023-04-11T00:40:55.152Z,47.18
2023-04-11T00:43:26.774Z,46.65
2023-04-11T00:45:58.571Z,47.34
2023-04-11T00:48:31.489Z,47.14
2023-04-11T00:51:03.427Z,46.76
2023-04-11T00:53:37.654Z,47.24
2023-04-11T00:56:10.260Z,47.25
2023-04-11T00:58:42.739Z,46.00
2023-04-11T01:01:14.635Z,46.53
2023-04-11T01:03:46.454Z,46.47
2023-04-11T01:06:20.121Z,46.54
2023-04-11T01:08:52.247Z,46.87
2023-04-11T01:11:24.941Z,46.23
2023-04-11T01:13:56.917Z,47.12
2023-04-11T01:16:29.270Z,46.67
2023-04-11T01:19:00.888Z,47.76
2023-04-11T01:21:33.589Z,46.93
2023-04-11T01:24:05.746Z,47.29
2023-04-11T01:26:37.863Z,47.58
2023-04-11T01:29:10.488Z,47.25
2023-04-11T01:31:43.385Z,47.57
2023-04-11T01:34:15.956Z,47.27
2023-04-11T01:37:01.409Z,46.56
2023-04-11T01:39:36.150Z,46.98
2023-04-11T01:42:10.081Z,47.27
2023-04-11T01:44:42.518Z,48.08
2023-04-11T01:47:14.716Z,48.04
2023-04-11T01:49:46.934Z,48.48
2023-04-11T01:52:18.944Z,48.18
2023-04-11T01:54:50.670Z,48.35
2023-04-11T01:57:22.260Z,48.20
2023-04-11T01:59:53.891Z,48.60
2023-04-11T02:02:25.640Z,49.95
2023-04-11T02:04:57.552Z,51.62
2023-04-11T02:07:29.262Z,53.42
2023-04-11T02:10:01.009Z,54.45
2023-04-11T02:12:32.632Z,54.39
2023-04-11T02:15:04.808Z,53.92
2023-04-11T02:17:36.645Z,53.88
2023-04-11T02:20:09.317Z,54.57
2023-04-11T02:22:41.812Z,54.80
2023-04-11T02:25:13.623Z,54.27
2023-04-11T02:27:45.313Z,54.89
2023-04-11T02:30:17.021Z,53.75
2023-04-11T02:32:49.068Z,53.53
2023-04-11T02:35:20.832Z,53.39
2023-04-11T02:37:52.496Z,52.92
2023-04-11T02:40:24.206Z,52.11
2023-04-11T02:42:55.763Z,53.47
2023-04-11T02:45:27.388Z,54.33
2023-04-11T02:47:59.064Z,54.63
2023-04-11T02:50:30.735Z,55.05
2023-04-11T02:53:02.627Z,55.74
2023-04-11T02:55:34.442Z,58.24
2023-04-11T02:58:06.156Z,58.17
2023-04-11T03:00:37.932Z,59.78
2023-04-11T03:03:12.795Z,60.20
2023-04-11T03:05:48.367Z,61.14
2023-04-11T03:08:24.082Z,62.28
2023-04-11T03:10:58.068Z,62.00
2023-04-11T03:13:30.772Z,62.80
2023-04-11T03:16:02.744Z,63.19
2023-04-11T03:18:36.602Z,63.36
2023-04-11T03:21:11.474Z,63.70
2023-04-11T03:23:47.311Z,63.36
2023-04-11T03:26:20.448Z,64.27
2023-04-11T03:28:52.964Z,64.30
2023-04-11T03:31:25.053Z,63.77
2023-04-11T03:33:58.839Z,64.34
2023-04-11T03:36:30.404Z,64.21
2023-04-11T03:39:07.608Z,63.94
2023-04-11T03:41:39.398Z,63.77
2023-04-11T03:44:14.147Z,63.92
2023-04-11T03:46:46.151Z,63.03
2023-04-11T03:49:18.068Z,63.20
2023-04-11T03:51:57.204Z,64.54
2023-04-11T03:54:30.970Z,64.66
2023-04-11T03:57:02.576Z,65.46
2023-04-11T03:59:35.232Z,64.98
2023-04-11T04:02:12.092Z,65.14
2023-04-11T04:04:50.201Z,65.13
2023-04-11T04:07:31.912Z,64.52
2023-04-11T04:10:20.467Z,65.23
2023-04-11T04:12:55.661Z,65.61
2023-04-11T04:15:37.374Z,65.47
2023-04-11T04:18:09.117Z,64.12
2023-04-11T04:20:51.660Z,63.55
2023-04-11T04:23:24.877Z,63.93
2023-04-11T04:26:23.711Z,65.25
2023-04-11T04:29:01.450Z,65.28
2023-04-11T04:31:37.858Z,64.84
2023-04-11T04:34:11.561Z,66.46
2023-04-11T04:36:48.245Z,68.75
2023-04-11T04:39:26.761Z,70.40
2023-04-11T04:42:00.057Z,69.55
2023-04-11T04:44:37.748Z,70.74
2023-04-11T04:47:18.217Z,71.33
2023-04-11T04:49:54.994Z,73.25
2023-04-11T04:52:28.883Z,71.48
2023-04-11T04:55:01.480Z,71.00
2023-04-11T04:57:33.310Z,72.34
2023-04-11T05:00:08.635Z,72.75
2023-04-11T05:02:40.607Z,73.43
2023-04-11T05:05:13.250Z,72.63
2023-04-11T05:07:45.276Z,73.46
2023-04-11T05:10:17.439Z,73.18
2023-04-11T05:12:49.976Z,72.42
2023-04-11T05:15:22.373Z,72.44
2023-04-11T05:17:55.197Z,74.33
2023-04-11T05:20:27.072Z,74.67
2023-04-11T05:22:58.813Z,75.28
2023-04-11T05:25:30.573Z,76.27
2023-04-11T05:28:02.229Z,77.78
2023-04-11T05:30:33.923Z,77.73
2023-04-11T05:33:05.754Z,76.89
2023-04-11T05:35:37.922Z,76.41
2023-04-11T05:38:09.533Z,74.76
2023-04-11T05:40:41.249Z,72.01
2023-04-11T05:43:13.283Z,72.68
2023-04-11T05:45:45.091Z,70.52
2023-04-11T05:48:17.463Z,68.38
2023-04-11T05:50:51.228Z,68.16
2023-04-11T05:53:23.056Z,67.14
2023-04-11T05:55:54.902Z,68.04
2023-04-11T05:58:26.603Z,67.81
2023-04-11T06:00:58.398Z,65.98
2023-04-11T06:03:30.170Z,66.47
2023-04-11T06:06:02.063Z,64.35
2023-04-11T06:08:33.826Z,63.01
2023-04-11T06:11:05.694Z,62.93
2023-04-11T06:13:37.307Z,64.69
2023-04-11T06:16:09.268Z,64.70
2023-04-11T06:18:40.965Z,65.82
2023-04-11T06:21:13.352Z,66.71
2023-04-11T06:23:45.076Z,67.85
2023-04-11T06:26:17.098Z,69.22
2023-04-11T06:28:51.867Z,69.33
2023-04-11T06:31:23.765Z,70.04
2023-04-11T06:33:56.248Z,69.58
2023-04-11T06:36:29.905Z,69.14
2023-04-11T06:39:01.565Z,69.32
2023-04-11T06:41:33.152Z,69.64
2023-04-11T06:44:04.753Z,70.66
2023-04-11T06:46:37.009Z,70.39
2023-04-11T06:49:18.416Z,73.30
2023-04-11T06:51:50.121Z,72.43
2023-04-11T06:54:26.147Z,72.43
2023-04-11T06:56:58.166Z,73.63
2023-04-11T06:59:30.087Z,73.32
2023-04-11T07:02:01.734Z,72.11
2023-04-11T07:04:33.608Z,72.98
2023-04-11T07:07:05.408Z,72.04
2023-04-11T07:09:36.946Z,71.78
2023-04-11T07:12:08.501Z,70.61
2023-04-11T07:14:40.105Z,70.54
2023-04-11T07:17:12.211Z,71.76
2023-04-11T07:19:44.858Z,70.95
2023-04-11T07:22:16.446Z,70.29
2023-04-11T07:24:51.826Z,70.50
2023-04-11T07:27:23.858Z,69.23
2023-04-11T07:29:56.044Z,69.72
2023-04-11T07:32:27.631Z,70.76
2023-04-11T07:34:59.288Z,70.23
2023-04-11T07:37:30.909Z,71.35
2023-04-11T07:40:02.501Z,71.06
2023-04-11T07:42:34.206Z,70.62
2023-04-11T07:45:08.085Z,69.05
2023-04-11T07:47:39.742Z,69.02
2023-04-11T07:50:11.976Z,67.58
2023-04-11T07:52:43.679Z,67.16
2023-04-11T07:55:15.442Z,67.45
2023-04-11T07:57:47.044Z,67.71
2023-04-11T08:00:20.314Z,67.65
2023-04-11T08:02:52.138Z,66.86
2023-04-11T08:05:24.122Z,66.37
2023-04-11T08:07:56.255Z,66.69
2023-04-11T08:10:27.925Z,66.21
2023-04-11T08:12:59.557Z,63.73
2023-04-11T08:15:31.134Z,63.55
2023-04-11T08:18:02.929Z,62.77
2023-04-11T08:20:34.657Z,60.89
2023-04-11T08:23:06.311Z,60.57
2023-04-11T08:25:37.948Z,61.86
2023-04-11T08:28:09.517Z,62.74
2023-04-11T08:30:41.172Z,62.34
2023-04-11T08:33:12.787Z,61.09
2023-04-11T08:35:44.432Z,60.55
2023-04-11T08:38:16.303Z,61.79
2023-04-11T08:40:48.006Z,62.42
2023-04-11T08:43:19.690Z,65.42
2023-04-11T08:45:51.353Z,66.70
2023-04-11T08:48:22.965Z,66.61
2023-04-11T08:50:54.570Z,65.78
2023-04-11T08:53:27.933Z,64.92
2023-04-11T08:55:59.541Z,64.94
2023-04-11T08:58:31.137Z,65.04
2023-04-11T09:01:25.054Z,64.47
2023-04-11T09:03:57.191Z,64.14
2023-04-11T09:06:29.597Z,63.73
2023-04-11T09:09:04.116Z,62.52
2023-04-11T09:11:53.966Z,62.31
2023-04-11T09:14:26.524Z,61.13
2023-04-11T09:17:03.731Z,60.83
2023-04-11T09:19:35.852Z,58.78
2023-04-11T09:22:08.091Z,58.84
2023-04-11T09:24:39.753Z,57.55
2023-04-11T09:27:17.078Z,57.91
2023-04-11T09:29:49.083Z,58.13
2023-04-11T09:32:31.224Z,56.96
2023-04-11T09:35:15.077Z,56.09
2023-04-11T09:37:52.512Z,55.85
2023-04-11T09:40:28.927Z,57.06
2023-04-11T09:43:03.884Z,57.88
2023-04-11T09:45:44.266Z,57.22
2023-04-11T09:48:32.085Z,57.08
2023-04-11T09:51:12.655Z,58.02
2023-04-11T09:53:45.993Z,55.96
2023-04-11T09:56:17.628Z,57.01
2023-04-11T09:58:49.667Z,55.76
2023-04-11T10:01:23.535Z,55.12
2023-04-11T10:03:56.149Z,54.26
2023-04-11T10:06:34.521Z,54.03
2023-04-11T10:09:08.278Z,51.37
2023-04-11T10:11:44.453Z,52.28
2023-04-11T10:14:48.594Z,51.55
2023-04-11T10:17:22.760Z,55.06
2023-04-11T10:19:56.084Z,53.95
2023-04-11T10:22:42.830Z,57.04
2023-04-11T10:25:19.463Z,57.36
2023-04-11T10:27:57.067Z,57.29
2023-04-11T10:30:48.843Z,58.31
2023-04-11T10:33:23.196Z,58.20
2023-04-11T10:36:02.395Z,58.66
2023-04-11T10:38:37.060Z,59.01
2023-04-11T10:41:16.545Z,59.04
2023-04-11T10:43:49.431Z,58.58
2023-04-11T10:46:21.107Z,59.10
2023-04-11T10:49:03.704Z,57.25
2023-04-11T10:51:35.339Z,59.03
2023-04-11T10:54:24.390Z,58.79
2023-04-11T10:56:56.280Z,59.29
2023-04-11T10:59:33.718Z,59.19
2023-04-11T11:02:05.449Z,58.76
2023-04-11T11:04:38.833Z,57.99
2023-04-11T11:07:15.159Z,57.23
2023-04-11T11:09:50.020Z,58.18
2023-04-11T11:12:21.692Z,58.67
2023-04-11T11:14:53.272Z,58.78
2023-04-11T11:17:24.930Z,59.04
2023-04-11T11:19:56.586Z,59.25
2023-04-11T11:22:28.282Z,57.68
2023-04-11T11:25:08.283Z,56.58
2023-04-11T11:27:39.952Z,55.91
2023-04-11T11:30:12.154Z,56.50
2023-04-11T11:32:43.780Z,57.14
2023-04-11T11:35:15.364Z,56.99
2023-04-11T11:37:47.002Z,55.91
2023-04-11T11:40:20.891Z,56.19
2023-04-11T11:42:52.780Z,55.39
2023-04-11T11:48:01.263Z,54.58
2023-04-11T11:50:34.424Z,54.82
2023-04-11T11:53:16.711Z,54.03
2023-04-11T11:55:48.669Z,53.81
2023-04-11T11:58:20.732Z,55.43
2023-04-11T12:00:54.710Z,55.51
2023-04-11T12:03:27.048Z,53.96
2023-04-11T12:05:58.994Z,54.56
2023-04-11T12:08:33.456Z,55.36
2023-04-11T12:11:12.535Z,54.16
2023-04-11T12:13:44.613Z,54.44
2023-04-11T12:16:21.071Z,54.60
2023-04-11T12:18:52.770Z,53.93
2023-04-11T12:21:24.403Z,52.99
2023-04-11T12:23:56.562Z,53.37
2023-04-11T12:26:28.246Z,52.64
2023-04-11T12:28:59.789Z,52.98
2023-04-11T12:31:31.357Z,53.30
2023-04-11T12:34:03.110Z,53.86
2023-04-11T12:36:35.392Z,53.13
2023-04-11T12:39:06.970Z,54.54
2023-04-11T12:41:38.813Z,55.21
2023-04-11T12:44:10.631Z,54.86
2023-04-11T12:46:42.328Z,54.40
2023-04-11T12:49:14.085Z,55.01
2023-04-11T12:51:45.724Z,55.12
2023-04-11T12:54:17.302Z,54.52
2023-04-11T12:56:48.950Z,54.75
2023-04-11T12:59:20.604Z,54.98
2023-04-11T13:01:52.472Z,55.32
2023-04-11T13:04:24.249Z,55.59
2023-04-11T13:06:55.996Z,56.58
2023-04-11T13:09:28.249Z,56.97
2023-04-11T13:12:01.033Z,57.87
2023-04-11T13:14:32.801Z,58.25
2023-04-11T13:17:04.460Z,58.22
2023-04-11T13:19:36.168Z,57.73
2023-04-11T13:22:07.826Z,57.28
2023-04-11T13:24:39.479Z,56.60
2023-04-11T13:27:11.179Z,56.97
2023-04-11T13:29:42.803Z,58.07
2023-04-11T13:32:14.448Z,57.97
2023-04-11T13:34:46.069Z,55.63
2023-04-11T13:37:17.720Z,54.13
2023-04-11T13:39:49.399Z,52.41
2023-04-11T13:42:21.048Z,52.60
2023-04-11T13:44:52.615Z,53.15
2023-04-11T13:47:24.418Z,54.34
2023-04-11T13:49:55.990Z,54.77
2023-04-11T13:52:27.514Z,56.20
2023-04-11T13:54:59.155Z,58.99
2023-04-11T13:57:30.805Z,61.25
2023-04-11T14:00:02.443Z,61.27
2023-04-11T14:02:36.541Z,60.89
2023-04-11T14:05:09.432Z,61.25
2023-04-11T14:07:41.294Z,61.39
2023-04-11T14:10:12.929Z,59.72
2023-04-11T14:12:44.606Z,60.33
2023-04-11T14:15:16.426Z,62.37
2023-04-11T14:17:48.190Z,62.62
2023-04-11T14:20:20.122Z,60.44
2023-04-11T14:22:52.236Z,60.10
2023-04-11T14:25:23.856Z,61.75
2023-04-11T14:27:55.544Z,62.84
2023-04-11T14:30:27.432Z,60.39
2023-04-11T14:32:59.190Z,61.09
2023-04-11T14:35:30.846Z,60.68
2023-04-11T14:38:02.515Z,58.49
2023-04-11T14:40:34.210Z,57.62
2023-04-11T14:43:05.772Z,56.63
2023-04-11T14:45:37.447Z,56.56
2023-04-11T14:48:09.159Z,54.47
2023-04-11T14:50:40.846Z,53.28
2023-04-11T14:53:12.450Z,50.30
2023-04-11T14:55:44.735Z,50.67
2023-04-11T14:58:16.565Z,50.85
2023-04-11T15:00:49.322Z,49.42
2023-04-11T15:03:21.096Z,51.47
2023-04-11T15:05:53.012Z,51.05
2023-04-11T15:08:24.627Z,49.33
2023-04-11T15:10:56.264Z,50.63
2023-04-11T15:13:27.978Z,49.80
2023-04-11T15:16:01.481Z,49.30
2023-04-11T15:18:33.178Z,49.10
2023-04-11T15:21:05.007Z,47.24
2023-04-11T15:23:36.676Z,45.47
2023-04-11T15:26:08.561Z,45.86
2023-04-11T15:28:40.247Z,46.62
2023-04-11T15:31:11.960Z,48.77
2023-04-11T15:33:43.621Z,47.71
2023-04-11T15:36:15.224Z,49.69
2023-04-11T15:38:49.093Z,49.25
2023-04-11T15:41:20.595Z,47.81
2023-04-11T15:43:52.217Z,47.75
2023-04-11T15:46:24.091Z,46.36
2023-04-11T15:48:55.704Z,47.65
2023-04-11T15:51:27.330Z,46.82
2023-04-11T15:53:59.177Z,47.44
2023-04-11T15:56:31.600Z,47.13
2023-04-11T15:59:03.348Z,47.16
2023-04-11T16:01:34.914Z,47.44
2023-04-11T16:04:06.610Z,47.58
2023-04-11T16:06:38.786Z,48.07
2023-04-11T16:09:10.440Z,47.34
2023-04-11T16:11:42.086Z,45.32
2023-04-11T16:14:13.727Z,45.56
2023-04-11T16:16:45.362Z,47.17
2023-04-11T16:19:16.978Z,46.64
2023-04-11T16:21:48.637Z,46.66
2023-04-11T16:24:20.214Z,44.74
2023-04-11T16:26:51.794Z,46.60
2023-04-11T16:29:23.466Z,47.29
2023-04-11T16:31:55.098Z,48.01
2023-04-11T16:34:29.894Z,46.14
2023-04-11T16:37:04.907Z,45.85
2023-04-11T16:39:36.436Z,47.68
2023-04-11T16:42:08.024Z,46.84
2023-04-11T16:44:39.617Z,47.30
2023-04-11T16:47:11.271Z,48.94
2023-04-11T16:49:44.356Z,47.99
2023-04-11T16:52:16.595Z,50.21
2023-04-11T16:54:48.337Z,50.05
2023-04-11T16:57:19.935Z,49.89
2023-04-11T16:59:51.580Z,50.32
2023-04-11T17:02:23.289Z,49.97
2023-04-11T17:04:54.937Z,51.00
2023-04-11T17:07:26.541Z,50.04
2023-04-11T17:09:58.131Z,50.80
2023-04-11T17:12:29.674Z,50.13
2023-04-11T17:15:01.245Z,51.09
2023-04-11T17:17:33.088Z,51.09
2023-04-11T17:20:06.805Z,51.58
2023-04-11T17:22:42.724Z,51.76
2023-04-11T17:25:14.794Z,52.46
2023-04-11T17:27:46.568Z,51.43
2023-04-11T17:30:18.247Z,51.50
2023-04-11T17:32:50.067Z,51.55
2023-04-11T17:35:21.780Z,51.69
2023-04-11T17:37:54.036Z,51.93
2023-04-11T17:40:25.673Z,50.32
2023-04-11T17:42:57.466Z,50.51
2023-04-11T17:45:29.933Z,49.45
2023-04-11T17:48:02.279Z,50.61
2023-04-11T17:50:34.075Z,49.87
2023-04-11T17:53:05.773Z,49.17
2023-04-11T17:55:37.364Z,48.37
2023-04-11T17:58:43.161Z,48.87
2023-04-11T18:01:14.897Z,49.30
2023-04-11T18:03:46.627Z,48.70
2023-04-11T18:06:18.325Z,48.17
2023-04-11T18:08:51.721Z,48.49
2023-04-11T18:11:23.824Z,49.17
2023-04-11T18:13:55.964Z,48.12
2023-04-11T18:16:27.915Z,48.15
2023-04-11T18:18:59.730Z,47.51
2023-04-11T18:21:31.335Z,48.52
2023-04-11T18:24:03.048Z,48.13
2023-04-11T18:26:34.661Z,48.72
2023-04-11T18:29:06.228Z,49.65
2023-04-11T18:31:37.831Z,48.64
2023-04-11T18:34:09.731Z,48.31
2023-04-11T18:36:41.615Z,48.60
2023-04-11T18:39:13.307Z,49.84
2023-04-11T18:41:45.306Z,48.87
2023-04-11T18:44:17.337Z,49.68
2023-04-11T18:46:51.451Z,49.12
2023-04-11T18:49:23.610Z,50.52
2023-04-11T18:51:55.238Z,49.39
2023-04-11T18:54:26.872Z,50.26
2023-04-11T18:56:59.358Z,49.75
2023-04-11T18:59:33.616Z,51.12
2023-04-11T19:02:06.899Z,49.85
2023-04-11T19:04:38.995Z,50.41
2023-04-11T19:07:10.673Z,49.73
2023-04-11T19:09:43.228Z,50.36
2023-04-11T19:12:14.932Z,49.58
2023-04-11T19:14:46.567Z,49.90
2023-04-11T19:17:18.743Z,53.58
2023-04-11T19:19:53.068Z,60.99
2023-04-11T19:22:24.692Z,60.40
2023-04-11T19:24:56.271Z,62.00
2023-04-11T19:27:27.995Z,61.86
2023-04-11T19:29:59.677Z,63.27
2023-04-11T19:32:32.081Z,66.31
2023-04-11T19:35:07.029Z,67.97
2023-04-11T19:37:39.100Z,68.08
2023-04-11T19:40:11.102Z,70.50
2023-04-11T19:42:44.811Z,69.18
2023-04-11T19:45:16.406Z,70.63
2023-04-11T19:47:48.067Z,71.60
2023-04-11T19:50:19.968Z,72.09
2023-04-11T19:52:55.117Z,71.55
2023-04-11T19:55:27.281Z,73.35
2023-04-11T19:57:58.887Z,72.95
2023-04-11T20:00:30.713Z,72.56
2023-04-11T20:03:02.475Z,70.83
2023-04-11T20:05:34.162Z,71.17
2023-04-11T20:08:05.794Z,70.38
2023-04-11T20:10:38.492Z,69.47
2023-04-11T20:13:10.116Z,68.86
2023-04-11T20:15:41.772Z,69.56
2023-04-11T20:18:13.522Z,69.41
2023-04-11T20:20:45.375Z,70.64
2023-04-11T20:23:16.967Z,69.28
2023-04-11T20:25:48.612Z,68.31
2023-04-11T20:28:20.198Z,66.07
2023-04-11T20:30:51.979Z,64.54
2023-04-11T20:33:23.625Z,63.60
2023-04-11T20:35:55.328Z,64.07
2023-04-11T20:38:26.952Z,65.61
2023-04-11T20:40:58.669Z,64.46
2023-04-11T20:43:31.197Z,64.08
2023-04-11T20:46:04.076Z,61.35
2023-04-11T20:48:35.812Z,61.36
2023-04-11T20:51:07.488Z,63.51
2023-04-11T20:53:39.086Z,62.80
2023-04-11T20:56:10.756Z,62.71
2023-04-11T20:58:42.382Z,62.97
2023-04-11T21:01:14.051Z,61.77
2023-04-11T21:03:46.006Z,63.25
2023-04-11T21:06:17.835Z,64.03
2023-04-11T21:08:49.399Z,61.74
2023-04-11T21:11:21.010Z,61.61
2023-04-11T21:13:52.656Z,62.15
2023-04-11T21:16:24.451Z,63.70
2023-04-11T21:18:56.214Z,63.00
2023-04-11T21:21:27.872Z,61.67
2023-04-11T21:23:59.622Z,62.02
2023-04-11T21:26:31.295Z,61.07
2023-04-11T21:29:02.912Z,62.32
2023-04-11T21:31:34.628Z,64.39
2023-04-11T21:34:06.274Z,67.99
2023-04-11T21:36:37.893Z,67.77
2023-04-11T21:39:09.598Z,66.15
2023-04-11T21:41:47.460Z,64.78
2023-04-11T21:44:23.105Z,63.70
2023-04-11T21:46:58.768Z,66.05
2023-04-11T21:49:31.798Z,65.05
2023-04-11T21:52:03.379Z,63.89
2023-04-11T21:54:35.450Z,64.11
2023-04-11T21:57:07.076Z,64.93
2023-04-11T21:59:38.912Z,66.40
2023-04-11T22:02:10.669Z,67.31
2023-04-11T22:04:51.625Z,69.11
2023-04-11T22:07:27.839Z,68.00
2023-04-11T22:09:59.419Z,67.60
2023-04-11T22:12:31.067Z,69.46
2023-04-11T22:15:03.085Z,72.19
2023-04-11T22:17:34.895Z,72.44
2023-04-11T22:20:06.967Z,70.71
2023-04-11T22:22:38.550Z,73.11
2023-04-11T22:25:10.175Z,72.66
2023-04-11T22:27:41.795Z,71.66
2023-04-11T22:30:14.138Z,70.45
2023-04-11T22:32:45.698Z,71.92
2023-04-11T22:35:17.685Z,72.35
2023-04-11T22:37:49.347Z,74.05
2023-04-11T22:40:21.331Z,73.84
2023-04-11T22:42:53.619Z,72.96
2023-04-11T22:45:25.162Z,74.14
2023-04-11T22:47:56.811Z,74.00
2023-04-11T22:50:28.478Z,74.66
2023-04-11T22:53:00.112Z,72.53
2023-04-11T22:55:32.651Z,72.12
2023-04-11T22:58:04.262Z,70.27
2023-04-11T23:00:35.836Z,69.56
2023-04-11T23:03:07.643Z,71.03
2023-04-11T23:05:39.975Z,72.16
2023-04-11T23:08:11.604Z,70.68
2023-04-11T23:10:43.358Z,68.85
2023-04-11T23:13:15.173Z,67.94
2023-04-11T23:15:46.960Z,68.55
2023-04-11T23:18:19.048Z,69.86
2023-04-11T23:20:50.923Z,70.48
2023-04-11T23:23:22.880Z,68.84
2023-04-11T23:25:54.561Z,67.14
2023-04-11T23:28:26.289Z,68.18
2023-04-11T23:30:58.105Z,67.21
2023-04-11T23:33:29.881Z,65.84
2023-04-11T23:36:01.489Z,66.14
2023-04-11T23:38:33.130Z,64.74
2023-04-11T23:43:56.671Z,66.93
2023-04-11T23:46:28.675Z,66.45
2023-04-11T23:49:00.314Z,66.64
2023-04-11T23:51:31.913Z,66.51
2023-04-11T23:54:03.656Z,66.04
2023-04-11T23:56:35.270Z,66.65
2023-04-11T23:59:06.890Z,65.90
